sensor_id;sensor_type;location;lat;lon;timestamp;temperature;humidity
22112;DHT22;11222;50.872;4.312;2024-03-02T00:01:24;7.30;99.90
22112;DHT22;11222;50.872;4.312;2024-03-02T00:03:49;7.30;99.90
22112;DHT22;11222;50.872;4.312;2024-03-02T00:06:16;7.30;99.90
22112;DHT22;11222;50.872;4.312;2024-03-02T00:08:44;7.30;99.90
22112;DHT22;11222;50.872;4.312;2024-03-02T00:11:10;7.30;99.90
22112;DHT22;11222;50.872;4.312;2024-03-02T00:13:39;7.40;99.90
22112;DHT22;11222;50.872;4.312;2024-03-02T00:16:04;7.50;99.90
22112;DHT22;11222;50.872;4.312;2024-03-02T00:18:31;7.50;99.90
22112;DHT22;11222;50.872;4.312;2024-03-02T00:20:57;7.60;99.90
22112;DHT22;11222;50.872;4.312;2024-03-02T00:23:24;7.50;99.90
22112;DHT22;11222;50.872;4.312;2024-03-02T00:25:53;7.50;99.90
22112;DHT22;11222;50.872;4.312;2024-03-02T00:28:20;7.50;99.90
22112;DHT22;11222;50.872;4.312;2024-03-02T00:33:11;7.50;99.90
22112;DHT22;11222;50.872;4.312;2024-03-02T00:35:37;7.50;99.90
22112;DHT22;11222;50.872;4.312;2024-03-02T00:38:05;7.50;99.90
22112;DHT22;11222;50.872;4.312;2024-03-02T00:40:31;7.50;99.90
22112;DHT22;11222;50.872;4.312;2024-03-02T00:42:57;7.60;99.90
22112;DHT22;11222;50.872;4.312;2024-03-02T00:45:23;7.60;99.90
22112;DHT22;11222;50.872;4.312;2024-03-02T00:47:50;7.60;99.90
22112;DHT22;11222;50.872;4.312;2024-03-02T00:50:15;7.60;99.90
22112;DHT22;11222;50.872;4.312;2024-03-02T00:52:41;7.60;99.90
22112;DHT22;11222;50.872;4.312;2024-03-02T00:55:07;7.60;99.90
22112;DHT22;11222;50.872;4.312;2024-03-02T00:57:33;7.70;99.90
22112;DHT22;11222;50.872;4.312;2024-03-02T01:00:00;7.60;99.90
22112;DHT22;11222;50.872;4.312;2024-03-02T01:02:25;7.60;99.90
22112;DHT22;11222;50.872;4.312;2024-03-02T01:04:51;7.60;99.90
22112;DHT22;11222;50.872;4.312;2024-03-02T01:07:16;7.60;99.90
22112;DHT22;11222;50.872;4.312;2024-03-02T01:09:42;7.60;99.90
22112;DHT22;11222;50.872;4.312;2024-03-02T01:12:07;7.50;99.90
22112;DHT22;11222;50.872;4.312;2024-03-02T01:14:33;7.60;99.90
22112;DHT22;11222;50.872;4.312;2024-03-02T01:16:58;7.60;99.90
22112;DHT22;11222;50.872;4.312;2024-03-02T01:19:24;7.70;99.90
22112;DHT22;11222;50.872;4.312;2024-03-02T01:21:49;7.60;99.90
22112;DHT22;11222;50.872;4.312;2024-03-02T01:24:16;7.70;99.90
22112;DHT22;11222;50.872;4.312;2024-03-02T01:26:42;7.80;99.90
22112;DHT22;11222;50.872;4.312;2024-03-02T01:29:07;7.70;99.90
22112;DHT22;11222;50.872;4.312;2024-03-02T01:31:33;7.80;99.90
22112;DHT22;11222;50.872;4.312;2024-03-02T01:33:58;7.80;99.90
22112;DHT22;11222;50.872;4.312;2024-03-02T01:36:24;7.80;99.90
22112;DHT22;11222;50.872;4.312;2024-03-02T01:38:49;7.80;99.90
22112;DHT22;11222;50.872;4.312;2024-03-02T01:41:15;7.70;99.90
22112;DHT22;11222;50.872;4.312;2024-03-02T01:43:40;7.80;99.90
22112;DHT22;11222;50.872;4.312;2024-03-02T01:46:06;7.70;99.90
22112;DHT22;11222;50.872;4.312;2024-03-02T01:48:32;7.70;99.90
22112;DHT22;11222;50.872;4.312;2024-03-02T01:50:57;7.70;99.90
22112;DHT22;11222;50.872;4.312;2024-03-02T01:53:23;7.70;99.90
22112;DHT22;11222;50.872;4.312;2024-03-02T01:55:49;7.70;99.90
22112;DHT22;11222;50.872;4.312;2024-03-02T01:58:14;7.80;99.90
22112;DHT22;11222;50.872;4.312;2024-03-02T02:00:40;7.80;99.90
22112;DHT22;11222;50.872;4.312;2024-03-02T02:03:05;7.80;99.90
22112;DHT22;11222;50.872;4.312;2024-03-02T02:05:32;7.70;99.90
22112;DHT22;11222;50.872;4.312;2024-03-02T02:07:57;7.80;99.90
22112;DHT22;11222;50.872;4.312;2024-03-02T02:10:24;7.70;99.90
22112;DHT22;11222;50.872;4.312;2024-03-02T02:12:49;7.70;99.90
22112;DHT22;11222;50.872;4.312;2024-03-02T02:15:24;7.60;99.90
22112;DHT22;11222;50.872;4.312;2024-03-02T02:17:50;7.60;99.90
22112;DHT22;11222;50.872;4.312;2024-03-02T02:20:16;7.60;99.90
22112;DHT22;11222;50.872;4.312;2024-03-02T02:22:53;7.70;99.90
22112;DHT22;11222;50.872;4.312;2024-03-02T02:25:18;7.80;99.90
22112;DHT22;11222;50.872;4.312;2024-03-02T02:27:44;7.70;99.90
22112;DHT22;11222;50.872;4.312;2024-03-02T02:30:10;7.70;99.90
22112;DHT22;11222;50.872;4.312;2024-03-02T02:32:35;7.70;99.90
22112;DHT22;11222;50.872;4.312;2024-03-02T02:35:01;7.70;99.90
22112;DHT22;11222;50.872;4.312;2024-03-02T02:37:26;7.80;99.90
22112;DHT22;11222;50.872;4.312;2024-03-02T02:39:52;7.70;99.90
22112;DHT22;11222;50.872;4.312;2024-03-02T02:42:17;7.70;99.90
22112;DHT22;11222;50.872;4.312;2024-03-02T02:44:43;7.80;99.90
22112;DHT22;11222;50.872;4.312;2024-03-02T02:47:09;7.80;99.90
22112;DHT22;11222;50.872;4.312;2024-03-02T02:49:35;7.80;99.90
22112;DHT22;11222;50.872;4.312;2024-03-02T02:52:00;7.80;99.90
22112;DHT22;11222;50.872;4.312;2024-03-02T02:54:26;7.80;99.90
22112;DHT22;11222;50.872;4.312;2024-03-02T02:56:51;7.80;99.90
22112;DHT22;11222;50.872;4.312;2024-03-02T02:59:17;7.80;99.90
22112;DHT22;11222;50.872;4.312;2024-03-02T03:01:42;7.80;99.90
22112;DHT22;11222;50.872;4.312;2024-03-02T03:04:08;7.70;99.90
22112;DHT22;11222;50.872;4.312;2024-03-02T03:06:33;7.70;99.90
22112;DHT22;11222;50.872;4.312;2024-03-02T03:08:59;7.60;99.90
22112;DHT22;11222;50.872;4.312;2024-03-02T03:11:24;7.60;99.90
22112;DHT22;11222;50.872;4.312;2024-03-02T03:13:52;7.60;99.90
22112;DHT22;11222;50.872;4.312;2024-03-02T03:16:19;7.60;99.90
22112;DHT22;11222;50.872;4.312;2024-03-02T03:18:44;7.70;99.90
22112;DHT22;11222;50.872;4.312;2024-03-02T03:21:10;7.70;99.90
22112;DHT22;11222;50.872;4.312;2024-03-02T03:23:36;7.70;99.90
22112;DHT22;11222;50.872;4.312;2024-03-02T03:26:01;7.50;99.90
22112;DHT22;11222;50.872;4.312;2024-03-02T03:28:27;7.50;99.90
22112;DHT22;11222;50.872;4.312;2024-03-02T03:30:52;7.50;99.90
22112;DHT22;11222;50.872;4.312;2024-03-02T03:33:18;7.40;99.90
22112;DHT22;11222;50.872;4.312;2024-03-02T03:35:43;7.50;99.90
22112;DHT22;11222;50.872;4.312;2024-03-02T03:38:09;7.40;99.90
22112;DHT22;11222;50.872;4.312;2024-03-02T03:40:34;7.50;99.90
22112;DHT22;11222;50.872;4.312;2024-03-02T03:43:00;7.50;99.90
22112;DHT22;11222;50.872;4.312;2024-03-02T03:45:25;7.50;99.90
22112;DHT22;11222;50.872;4.312;2024-03-02T03:47:52;7.50;99.90
22112;DHT22;11222;50.872;4.312;2024-03-02T03:50:18;7.50;99.90
22112;DHT22;11222;50.872;4.312;2024-03-02T03:52:43;7.60;99.90
22112;DHT22;11222;50.872;4.312;2024-03-02T03:55:09;7.60;99.90
22112;DHT22;11222;50.872;4.312;2024-03-02T03:57:35;7.60;99.90
22112;DHT22;11222;50.872;4.312;2024-03-02T04:00:01;7.50;99.90
22112;DHT22;11222;50.872;4.312;2024-03-02T04:02:26;7.50;99.90
22112;DHT22;11222;50.872;4.312;2024-03-02T04:04:52;7.50;99.90
22112;DHT22;11222;50.872;4.312;2024-03-02T04:07:17;7.50;99.90
22112;DHT22;11222;50.872;4.312;2024-03-02T04:09:43;7.60;99.90
22112;DHT22;11222;50.872;4.312;2024-03-02T04:12:08;7.60;99.90
22112;DHT22;11222;50.872;4.312;2024-03-02T04:14:34;7.70;99.90
22112;DHT22;11222;50.872;4.312;2024-03-02T04:16:59;7.80;99.90
22112;DHT22;11222;50.872;4.312;2024-03-02T04:19:25;7.60;99.90
22112;DHT22;11222;50.872;4.312;2024-03-02T04:21:51;7.60;99.90
22112;DHT22;11222;50.872;4.312;2024-03-02T04:24:16;7.60;99.90
22112;DHT22;11222;50.872;4.312;2024-03-02T04:26:42;7.60;99.90
22112;DHT22;11222;50.872;4.312;2024-03-02T04:29:07;7.70;99.90
22112;DHT22;11222;50.872;4.312;2024-03-02T04:31:33;7.60;99.90
22112;DHT22;11222;50.872;4.312;2024-03-02T04:33:58;7.70;99.90
22112;DHT22;11222;50.872;4.312;2024-03-02T04:36:24;7.70;99.90
22112;DHT22;11222;50.872;4.312;2024-03-02T04:38:49;7.80;99.90
22112;DHT22;11222;50.872;4.312;2024-03-02T04:41:15;7.70;99.90
22112;DHT22;11222;50.872;4.312;2024-03-02T04:43:40;7.70;99.90
22112;DHT22;11222;50.872;4.312;2024-03-02T04:46:06;7.60;99.90
22112;DHT22;11222;50.872;4.312;2024-03-02T04:48:32;7.60;99.90
22112;DHT22;11222;50.872;4.312;2024-03-02T04:50:58;7.50;99.90
22112;DHT22;11222;50.872;4.312;2024-03-02T04:53:23;7.50;99.90
22112;DHT22;11222;50.872;4.312;2024-03-02T04:55:49;7.40;99.90
22112;DHT22;11222;50.872;4.312;2024-03-02T04:58:20;7.40;99.90
22112;DHT22;11222;50.872;4.312;2024-03-02T05:00:45;7.40;99.90
22112;DHT22;11222;50.872;4.312;2024-03-02T05:03:14;7.40;99.90
22112;DHT22;11222;50.872;4.312;2024-03-02T05:05:39;7.40;99.90
22112;DHT22;11222;50.872;4.312;2024-03-02T05:08:05;7.40;99.90
22112;DHT22;11222;50.872;4.312;2024-03-02T05:10:31;7.50;99.90
22112;DHT22;11222;50.872;4.312;2024-03-02T05:12:57;7.40;99.90
22112;DHT22;11222;50.872;4.312;2024-03-02T05:15:24;7.40;99.90
22112;DHT22;11222;50.872;4.312;2024-03-02T05:17:50;7.20;99.90
22112;DHT22;11222;50.872;4.312;2024-03-02T05:20:15;7.10;99.90
22112;DHT22;11222;50.872;4.312;2024-03-02T05:22:42;7.00;99.90
22112;DHT22;11222;50.872;4.312;2024-03-02T05:25:08;6.90;99.90
22112;DHT22;11222;50.872;4.312;2024-03-02T05:27:35;6.80;99.90
22112;DHT22;11222;50.872;4.312;2024-03-02T05:30:00;6.80;99.90
22112;DHT22;11222;50.872;4.312;2024-03-02T05:32:26;6.90;99.90
22112;DHT22;11222;50.872;4.312;2024-03-02T05:34:52;6.80;99.90
22112;DHT22;11222;50.872;4.312;2024-03-02T05:37:17;6.80;99.90
22112;DHT22;11222;50.872;4.312;2024-03-02T05:39:43;6.80;99.90
22112;DHT22;11222;50.872;4.312;2024-03-02T05:42:09;6.70;99.90
22112;DHT22;11222;50.872;4.312;2024-03-02T05:44:35;6.80;99.90
22112;DHT22;11222;50.872;4.312;2024-03-02T05:47:00;6.80;99.90
22112;DHT22;11222;50.872;4.312;2024-03-02T05:49:26;6.80;99.90
22112;DHT22;11222;50.872;4.312;2024-03-02T05:51:51;6.90;99.90
22112;DHT22;11222;50.872;4.312;2024-03-02T05:54:17;6.90;99.90
22112;DHT22;11222;50.872;4.312;2024-03-02T05:56:43;6.90;99.90
22112;DHT22;11222;50.872;4.312;2024-03-02T05:59:09;6.80;99.90
22112;DHT22;11222;50.872;4.312;2024-03-02T06:01:47;6.90;99.90
22112;DHT22;11222;50.872;4.312;2024-03-02T06:04:13;6.90;99.90
22112;DHT22;11222;50.872;4.312;2024-03-02T06:06:39;6.80;99.90
22112;DHT22;11222;50.872;4.312;2024-03-02T06:09:05;6.70;99.90
22112;DHT22;11222;50.872;4.312;2024-03-02T06:11:36;6.70;99.90
22112;DHT22;11222;50.872;4.312;2024-03-02T06:14:02;6.80;99.90
22112;DHT22;11222;50.872;4.312;2024-03-02T06:16:27;6.80;99.90
22112;DHT22;11222;50.872;4.312;2024-03-02T06:18:53;6.70;99.90
22112;DHT22;11222;50.872;4.312;2024-03-02T06:21:19;6.70;99.90
22112;DHT22;11222;50.872;4.312;2024-03-02T06:23:45;6.70;99.90
22112;DHT22;11222;50.872;4.312;2024-03-02T06:26:10;6.70;99.90
22112;DHT22;11222;50.872;4.312;2024-03-02T06:28:36;6.60;99.90
22112;DHT22;11222;50.872;4.312;2024-03-02T06:31:01;6.70;99.90
22112;DHT22;11222;50.872;4.312;2024-03-02T06:33:27;6.70;99.90
22112;DHT22;11222;50.872;4.312;2024-03-02T06:35:53;6.60;99.90
22112;DHT22;11222;50.872;4.312;2024-03-02T06:38:19;6.60;99.90
22112;DHT22;11222;50.872;4.312;2024-03-02T06:40:44;6.60;99.90
22112;DHT22;11222;50.872;4.312;2024-03-02T06:43:10;6.60;99.90
22112;DHT22;11222;50.872;4.312;2024-03-02T06:45:36;6.50;99.90
22112;DHT22;11222;50.872;4.312;2024-03-02T06:48:01;6.60;99.90
22112;DHT22;11222;50.872;4.312;2024-03-02T06:50:27;6.70;99.90
22112;DHT22;11222;50.872;4.312;2024-03-02T06:52:52;6.70;99.90
22112;DHT22;11222;50.872;4.312;2024-03-02T06:55:18;6.60;99.90
22112;DHT22;11222;50.872;4.312;2024-03-02T06:57:43;6.60;99.90
22112;DHT22;11222;50.872;4.312;2024-03-02T07:00:09;6.70;99.90
22112;DHT22;11222;50.872;4.312;2024-03-02T07:02:35;6.70;99.90
22112;DHT22;11222;50.872;4.312;2024-03-02T07:05:02;6.70;99.90
22112;DHT22;11222;50.872;4.312;2024-03-02T07:07:27;6.70;99.90
22112;DHT22;11222;50.872;4.312;2024-03-02T07:09:53;6.80;99.90
22112;DHT22;11222;50.872;4.312;2024-03-02T07:12:18;6.80;99.90
22112;DHT22;11222;50.872;4.312;2024-03-02T07:14:44;6.70;99.90
22112;DHT22;11222;50.872;4.312;2024-03-02T07:17:28;6.70;99.90
22112;DHT22;11222;50.872;4.312;2024-03-02T07:19:53;6.70;99.90
22112;DHT22;11222;50.872;4.312;2024-03-02T07:22:19;6.70;99.90
22112;DHT22;11222;50.872;4.312;2024-03-02T07:24:45;6.70;99.90
22112;DHT22;11222;50.872;4.312;2024-03-02T07:27:14;6.80;99.90
22112;DHT22;11222;50.872;4.312;2024-03-02T07:29:40;6.80;99.90
22112;DHT22;11222;50.872;4.312;2024-03-02T07:32:06;7.00;99.90
22112;DHT22;11222;50.872;4.312;2024-03-02T07:34:32;7.00;99.90
22112;DHT22;11222;50.872;4.312;2024-03-02T07:36:57;7.00;99.90
22112;DHT22;11222;50.872;4.312;2024-03-02T07:39:23;6.90;99.90
22112;DHT22;11222;50.872;4.312;2024-03-02T07:41:49;6.90;99.90
22112;DHT22;11222;50.872;4.312;2024-03-02T07:44:14;6.90;99.90
22112;DHT22;11222;50.872;4.312;2024-03-02T07:46:41;6.90;99.90
22112;DHT22;11222;50.872;4.312;2024-03-02T07:49:06;7.00;99.90
22112;DHT22;11222;50.872;4.312;2024-03-02T07:51:32;6.90;99.90
22112;DHT22;11222;50.872;4.312;2024-03-02T07:53:57;6.90;99.90
22112;DHT22;11222;50.872;4.312;2024-03-02T07:56:23;7.00;99.90
22112;DHT22;11222;50.872;4.312;2024-03-02T07:58:48;7.10;99.90
22112;DHT22;11222;50.872;4.312;2024-03-02T08:01:14;7.10;99.90
22112;DHT22;11222;50.872;4.312;2024-03-02T08:03:40;7.10;99.90
22112;DHT22;11222;50.872;4.312;2024-03-02T08:06:06;7.30;99.90
22112;DHT22;11222;50.872;4.312;2024-03-02T08:08:31;7.40;99.90
22112;DHT22;11222;50.872;4.312;2024-03-02T08:10:57;7.30;99.90
22112;DHT22;11222;50.872;4.312;2024-03-02T08:13:23;7.40;99.90
22112;DHT22;11222;50.872;4.312;2024-03-02T08:15:48;7.40;99.90
22112;DHT22;11222;50.872;4.312;2024-03-02T08:18:14;7.40;99.90
22112;DHT22;11222;50.872;4.312;2024-03-02T08:20:40;7.50;99.90
22112;DHT22;11222;50.872;4.312;2024-03-02T08:23:06;7.60;99.90
22112;DHT22;11222;50.872;4.312;2024-03-02T08:25:31;7.60;99.90
22112;DHT22;11222;50.872;4.312;2024-03-02T08:27:57;7.60;99.90
22112;DHT22;11222;50.872;4.312;2024-03-02T08:30:23;7.70;99.90
22112;DHT22;11222;50.872;4.312;2024-03-02T08:32:49;7.70;99.90
22112;DHT22;11222;50.872;4.312;2024-03-02T08:35:14;7.70;99.90
22112;DHT22;11222;50.872;4.312;2024-03-02T08:37:41;7.90;99.90
22112;DHT22;11222;50.872;4.312;2024-03-02T08:40:07;8.00;99.90
22112;DHT22;11222;50.872;4.312;2024-03-02T08:42:32;8.10;99.90
22112;DHT22;11222;50.872;4.312;2024-03-02T08:44:58;8.10;99.90
22112;DHT22;11222;50.872;4.312;2024-03-02T08:47:26;8.20;99.90
22112;DHT22;11222;50.872;4.312;2024-03-02T08:49:52;8.30;99.90
22112;DHT22;11222;50.872;4.312;2024-03-02T08:52:17;8.40;99.90
22112;DHT22;11222;50.872;4.312;2024-03-02T08:54:43;8.50;99.90
22112;DHT22;11222;50.872;4.312;2024-03-02T08:57:08;8.50;99.90
22112;DHT22;11222;50.872;4.312;2024-03-02T08:59:34;8.60;99.90
22112;DHT22;11222;50.872;4.312;2024-03-02T09:01:59;8.50;99.90
22112;DHT22;11222;50.872;4.312;2024-03-02T09:04:25;8.70;99.90
22112;DHT22;11222;50.872;4.312;2024-03-02T09:06:51;8.90;99.90
22112;DHT22;11222;50.872;4.312;2024-03-02T09:09:16;8.90;99.90
22112;DHT22;11222;50.872;4.312;2024-03-02T09:11:42;8.90;99.90
22112;DHT22;11222;50.872;4.312;2024-03-02T09:14:07;9.00;99.90
22112;DHT22;11222;50.872;4.312;2024-03-02T09:16:33;9.00;99.90
22112;DHT22;11222;50.872;4.312;2024-03-02T09:18:58;8.90;99.90
22112;DHT22;11222;50.872;4.312;2024-03-02T09:21:24;9.00;99.90
22112;DHT22;11222;50.872;4.312;2024-03-02T09:23:50;9.10;99.90
22112;DHT22;11222;50.872;4.312;2024-03-02T09:26:16;9.20;99.90
22112;DHT22;11222;50.872;4.312;2024-03-02T09:28:45;9.20;99.90
22112;DHT22;11222;50.872;4.312;2024-03-02T09:31:10;9.30;99.90
22112;DHT22;11222;50.872;4.312;2024-03-02T09:33:37;9.30;99.90
22112;DHT22;11222;50.872;4.312;2024-03-02T09:36:04;9.40;99.90
22112;DHT22;11222;50.872;4.312;2024-03-02T09:38:31;9.50;99.90
22112;DHT22;11222;50.872;4.312;2024-03-02T09:40:57;9.60;99.90
22112;DHT22;11222;50.872;4.312;2024-03-02T09:43:22;9.90;99.90
22112;DHT22;11222;50.872;4.312;2024-03-02T09:45:48;10.30;99.90
22112;DHT22;11222;50.872;4.312;2024-03-02T09:48:14;10.40;99.90
22112;DHT22;11222;50.872;4.312;2024-03-02T09:50:43;10.50;99.90
22112;DHT22;11222;50.872;4.312;2024-03-02T09:53:09;10.00;99.90
22112;DHT22;11222;50.872;4.312;2024-03-02T09:55:35;9.90;99.90
22112;DHT22;11222;50.872;4.312;2024-03-02T09:58:01;10.10;99.90
22112;DHT22;11222;50.872;4.312;2024-03-02T10:00:26;10.30;99.90
22112;DHT22;11222;50.872;4.312;2024-03-02T10:02:52;10.20;99.90
22112;DHT22;11222;50.872;4.312;2024-03-02T10:05:24;10.20;99.90
22112;DHT22;11222;50.872;4.312;2024-03-02T10:08:01;10.30;99.90
22112;DHT22;11222;50.872;4.312;2024-03-02T10:10:36;10.40;99.90
22112;DHT22;11222;50.872;4.312;2024-03-02T10:13:08;10.20;99.90
22112;DHT22;11222;50.872;4.312;2024-03-02T10:15:34;10.80;99.90
22112;DHT22;11222;50.872;4.312;2024-03-02T10:18:01;11.10;99.90
22112;DHT22;11222;50.872;4.312;2024-03-02T10:20:27;11.30;99.90
22112;DHT22;11222;50.872;4.312;2024-03-02T10:23:13;11.60;99.90
22112;DHT22;11222;50.872;4.312;2024-03-02T10:25:39;11.70;99.90
22112;DHT22;11222;50.872;4.312;2024-03-02T10:28:04;12.20;99.90
22112;DHT22;11222;50.872;4.312;2024-03-02T10:30:31;12.20;99.90
22112;DHT22;11222;50.872;4.312;2024-03-02T10:32:56;12.80;99.90
22112;DHT22;11222;50.872;4.312;2024-03-02T10:35:22;13.20;99.90
22112;DHT22;11222;50.872;4.312;2024-03-02T10:37:51;14.40;99.90
22112;DHT22;11222;50.872;4.312;2024-03-02T10:40:17;14.20;99.90
22112;DHT22;11222;50.872;4.312;2024-03-02T10:42:43;13.60;99.90
22112;DHT22;11222;50.872;4.312;2024-03-02T10:45:10;13.00;99.90
22112;DHT22;11222;50.872;4.312;2024-03-02T10:47:36;13.80;99.90
22112;DHT22;11222;50.872;4.312;2024-03-02T10:50:04;14.90;99.90
22112;DHT22;11222;50.872;4.312;2024-03-02T10:52:31;13.70;99.90
22112;DHT22;11222;50.872;4.312;2024-03-02T10:54:57;13.60;99.90
22112;DHT22;11222;50.872;4.312;2024-03-02T10:57:22;13.40;99.90
22112;DHT22;11222;50.872;4.312;2024-03-02T10:59:53;13.10;99.90
22112;DHT22;11222;50.872;4.312;2024-03-02T11:02:22;12.30;99.90
22112;DHT22;11222;50.872;4.312;2024-03-02T11:04:49;12.10;99.90
22112;DHT22;11222;50.872;4.312;2024-03-02T11:07:15;12.10;99.90
22112;DHT22;11222;50.872;4.312;2024-03-02T11:09:53;11.90;99.90
22112;DHT22;11222;50.872;4.312;2024-03-02T11:12:19;11.90;99.90
22112;DHT22;11222;50.872;4.312;2024-03-02T11:14:47;12.00;99.90
22112;DHT22;11222;50.872;4.312;2024-03-02T11:17:14;12.10;99.90
22112;DHT22;11222;50.872;4.312;2024-03-02T11:19:43;11.90;99.90
22112;DHT22;11222;50.872;4.312;2024-03-02T11:22:09;11.90;99.90
22112;DHT22;11222;50.872;4.312;2024-03-02T11:24:35;11.90;99.90
22112;DHT22;11222;50.872;4.312;2024-03-02T11:27:03;11.70;99.90
22112;DHT22;11222;50.872;4.312;2024-03-02T11:32:05;11.30;99.90
22112;DHT22;11222;50.872;4.312;2024-03-02T11:34:32;11.30;99.90
22112;DHT22;11222;50.872;4.312;2024-03-02T11:36:58;11.50;99.90
22112;DHT22;11222;50.872;4.312;2024-03-02T11:39:27;12.00;99.90
22112;DHT22;11222;50.872;4.312;2024-03-02T11:41:52;12.00;99.90
22112;DHT22;11222;50.872;4.312;2024-03-02T11:44:18;12.10;99.90
22112;DHT22;11222;50.872;4.312;2024-03-02T11:46:58;12.10;99.90
22112;DHT22;11222;50.872;4.312;2024-03-02T11:52:09;12.20;99.90
22112;DHT22;11222;50.872;4.312;2024-03-02T11:54:36;12.30;99.90
22112;DHT22;11222;50.872;4.312;2024-03-02T11:57:03;13.30;99.90
22112;DHT22;11222;50.872;4.312;2024-03-02T11:59:29;13.70;99.90
22112;DHT22;11222;50.872;4.312;2024-03-02T12:01:55;14.20;99.90
22112;DHT22;11222;50.872;4.312;2024-03-02T12:04:23;14.60;99.90
22112;DHT22;11222;50.872;4.312;2024-03-02T12:06:54;14.50;99.90
22112;DHT22;11222;50.872;4.312;2024-03-02T12:09:20;13.90;99.90
22112;DHT22;11222;50.872;4.312;2024-03-02T12:11:46;13.70;99.90
22112;DHT22;11222;50.872;4.312;2024-03-02T12:14:11;13.60;99.90
22112;DHT22;11222;50.872;4.312;2024-03-02T12:16:38;13.40;99.90
22112;DHT22;11222;50.872;4.312;2024-03-02T12:19:05;13.30;99.90
22112;DHT22;11222;50.872;4.312;2024-03-02T12:21:31;13.10;99.90
22112;DHT22;11222;50.872;4.312;2024-03-02T12:23:57;13.10;99.90
22112;DHT22;11222;50.872;4.312;2024-03-02T12:26:22;12.70;99.90
22112;DHT22;11222;50.872;4.312;2024-03-02T12:28:48;12.80;99.90
22112;DHT22;11222;50.872;4.312;2024-03-02T12:31:14;12.80;99.90
22112;DHT22;11222;50.872;4.312;2024-03-02T12:33:40;12.70;99.90
22112;DHT22;11222;50.872;4.312;2024-03-02T12:36:08;12.80;99.90
22112;DHT22;11222;50.872;4.312;2024-03-02T12:38:34;12.90;99.90
22112;DHT22;11222;50.872;4.312;2024-03-02T12:41:00;13.20;99.90
22112;DHT22;11222;50.872;4.312;2024-03-02T12:43:29;13.30;99.90
22112;DHT22;11222;50.872;4.312;2024-03-02T12:45:55;13.30;99.90
22112;DHT22;11222;50.872;4.312;2024-03-02T12:48:21;13.30;99.90
22112;DHT22;11222;50.872;4.312;2024-03-02T12:50:47;13.40;99.90
22112;DHT22;11222;50.872;4.312;2024-03-02T12:53:16;13.40;99.90
22112;DHT22;11222;50.872;4.312;2024-03-02T12:55:41;13.40;99.90
22112;DHT22;11222;50.872;4.312;2024-03-02T12:58:07;13.40;99.90
22112;DHT22;11222;50.872;4.312;2024-03-02T13:00:33;13.20;99.90
22112;DHT22;11222;50.872;4.312;2024-03-02T13:03:00;13.20;99.90
22112;DHT22;11222;50.872;4.312;2024-03-02T13:05:31;13.00;99.90
22112;DHT22;11222;50.872;4.312;2024-03-02T13:07:58;13.10;99.90
22112;DHT22;11222;50.872;4.312;2024-03-02T13:10:24;13.00;99.90
22112;DHT22;11222;50.872;4.312;2024-03-02T13:12:50;12.90;99.90
22112;DHT22;11222;50.872;4.312;2024-03-02T13:15:16;12.90;99.90
22112;DHT22;11222;50.872;4.312;2024-03-02T13:17:41;13.10;99.90
22112;DHT22;11222;50.872;4.312;2024-03-02T13:20:07;12.90;99.90
22112;DHT22;11222;50.872;4.312;2024-03-02T13:22:35;12.90;99.90
22112;DHT22;11222;50.872;4.312;2024-03-02T13:25:01;12.90;99.90
22112;DHT22;11222;50.872;4.312;2024-03-02T13:27:29;13.10;99.90
22112;DHT22;11222;50.872;4.312;2024-03-02T13:29:55;13.10;99.90
22112;DHT22;11222;50.872;4.312;2024-03-02T13:32:20;13.10;99.90
22112;DHT22;11222;50.872;4.312;2024-03-02T13:34:49;13.10;99.90
22112;DHT22;11222;50.872;4.312;2024-03-02T13:37:14;13.10;99.90
22112;DHT22;11222;50.872;4.312;2024-03-02T13:39:40;13.30;99.90
22112;DHT22;11222;50.872;4.312;2024-03-02T13:42:07;13.40;99.90
22112;DHT22;11222;50.872;4.312;2024-03-02T13:44:33;13.50;99.90
22112;DHT22;11222;50.872;4.312;2024-03-02T13:47:02;13.40;99.90
22112;DHT22;11222;50.872;4.312;2024-03-02T13:49:28;13.50;99.90
22112;DHT22;11222;50.872;4.312;2024-03-02T13:51:59;13.50;99.90
22112;DHT22;11222;50.872;4.312;2024-03-02T13:54:26;13.40;99.90
22112;DHT22;11222;50.872;4.312;2024-03-02T13:56:52;13.40;99.90
22112;DHT22;11222;50.872;4.312;2024-03-02T13:59:17;13.40;99.90
22112;DHT22;11222;50.872;4.312;2024-03-02T14:01:43;13.30;99.90
22112;DHT22;11222;50.872;4.312;2024-03-02T14:04:09;13.00;99.90
22112;DHT22;11222;50.872;4.312;2024-03-02T14:06:35;13.00;99.90
22112;DHT22;11222;50.872;4.312;2024-03-02T14:09:00;13.00;99.90
22112;DHT22;11222;50.872;4.312;2024-03-02T14:11:26;12.90;99.90
22112;DHT22;11222;50.872;4.312;2024-03-02T14:13:52;12.80;99.90
22112;DHT22;11222;50.872;4.312;2024-03-02T14:16:20;12.80;99.90
22112;DHT22;11222;50.872;4.312;2024-03-02T14:18:46;12.90;99.90
22112;DHT22;11222;50.872;4.312;2024-03-02T14:21:11;12.80;99.90
22112;DHT22;11222;50.872;4.312;2024-03-02T14:23:37;12.60;99.90
22112;DHT22;11222;50.872;4.312;2024-03-02T14:26:02;12.40;99.90
22112;DHT22;11222;50.872;4.312;2024-03-02T14:28:28;12.40;99.90
22112;DHT22;11222;50.872;4.312;2024-03-02T14:30:53;12.30;99.90
22112;DHT22;11222;50.872;4.312;2024-03-02T14:33:20;12.20;99.90
22112;DHT22;11222;50.872;4.312;2024-03-02T14:35:45;12.20;99.90
22112;DHT22;11222;50.872;4.312;2024-03-02T14:38:11;12.20;99.90
22112;DHT22;11222;50.872;4.312;2024-03-02T14:40:37;12.30;99.90
22112;DHT22;11222;50.872;4.312;2024-03-02T14:43:03;12.20;99.90
22112;DHT22;11222;50.872;4.312;2024-03-02T14:45:29;12.30;99.90
22112;DHT22;11222;50.872;4.312;2024-03-02T14:47:55;12.30;99.90
22112;DHT22;11222;50.872;4.312;2024-03-02T14:50:21;12.40;99.90
22112;DHT22;11222;50.872;4.312;2024-03-02T14:52:46;12.50;99.90
22112;DHT22;11222;50.872;4.312;2024-03-02T14:55:12;12.60;99.90
22112;DHT22;11222;50.872;4.312;2024-03-02T14:57:37;12.70;99.90
22112;DHT22;11222;50.872;4.312;2024-03-02T15:00:03;12.70;99.90
22112;DHT22;11222;50.872;4.312;2024-03-02T15:02:32;12.70;99.90
22112;DHT22;11222;50.872;4.312;2024-03-02T15:04:58;12.80;99.90
22112;DHT22;11222;50.872;4.312;2024-03-02T15:07:23;12.90;99.90
22112;DHT22;11222;50.872;4.312;2024-03-02T15:09:49;12.90;99.90
22112;DHT22;11222;50.872;4.312;2024-03-02T15:12:15;13.00;99.90
22112;DHT22;11222;50.872;4.312;2024-03-02T15:14:43;12.80;99.90
22112;DHT22;11222;50.872;4.312;2024-03-02T15:17:12;12.80;99.90
22112;DHT22;11222;50.872;4.312;2024-03-02T15:19:44;12.60;99.90
22112;DHT22;11222;50.872;4.312;2024-03-02T15:22:10;12.60;99.90
22112;DHT22;11222;50.872;4.312;2024-03-02T15:24:35;12.80;99.90
22112;DHT22;11222;50.872;4.312;2024-03-02T15:27:01;12.60;99.90
22112;DHT22;11222;50.872;4.312;2024-03-02T15:29:36;12.40;99.90
22112;DHT22;11222;50.872;4.312;2024-03-02T15:32:02;12.30;99.90
22112;DHT22;11222;50.872;4.312;2024-03-02T15:34:31;12.20;99.90
22112;DHT22;11222;50.872;4.312;2024-03-02T15:36:57;12.10;99.90
22112;DHT22;11222;50.872;4.312;2024-03-02T15:39:23;12.20;99.90
22112;DHT22;11222;50.872;4.312;2024-03-02T15:41:48;12.20;99.90